Time;durP1;ratioP1;P1;durP2;ratioP2;P2;SDS_P1;SDS_P2;PMS_P1;PMS_P2;Temp;Humidity;BMP_temperature;BMP_pressure;BME280_temperature;BME280_humidity;BME280_pressure;Samples;Min_cycle;Max_cycle;Signal;HPM_P1;HPM_P2
2021/04/09 00:00:59;;;;;;;6.95;5.32;;;8.10;99.90;;;;;;5035325;28;20199;-68
2021/04/09 00:03:25;;;;;;;5.50;4.72;;;8.10;99.90;;;;;;5032052;28;20579;-70
2021/04/09 00:05:51;;;;;;;7.43;5.18;;;8.00;99.90;;;;;;5034271;28;20195;-70
2021/04/09 00:08:18;;;;;;;5.22;4.72;;;8.10;99.90;;;;;;5037007;28;20207;-68
2021/04/09 00:10:44;;;;;;;5.93;5.18;;;8.10;99.90;;;;;;5041468;28;20559;-68
2021/04/09 00:13:10;;;;;;;8.85;5.82;;;8.00;99.90;;;;;;5042334;28;20223;-68
2021/04/09 00:15:36;;;;;;;7.88;5.32;;;8.00;99.90;;;;;;5043299;28;20195;-69
2021/04/09 00:18:04;;;;;;;6.32;4.93;;;8.00;99.90;;;;;;5043404;28;20207;-68
2021/04/09 00:20:30;;;;;;;6.50;5.88;;;8.00;99.90;;;;;;5030617;28;20206;-69
2021/04/09 00:22:56;;;;;;;5.97;4.45;;;8.00;99.90;;;;;;5045903;28;20560;-69
2021/04/09 00:25:23;;;;;;;6.65;4.65;;;7.90;99.90;;;;;;5046311;28;20342;-68
2021/04/09 00:27:49;;;;;;;6.00;5.32;;;7.90;99.90;;;;;;5040721;28;20700;-68
2021/04/09 00:30:21;;;;;;;7.80;4.50;;;7.90;99.90;;;;;;5045942;28;20199;-69
2021/04/09 00:32:48;;;;;;;5.93;5.15;;;7.90;99.90;;;;;;5038965;28;20192;-69
2021/04/09 00:35:15;;;;;;;5.72;5.18;;;7.90;99.90;;;;;;5045244;28;20203;-68
2021/04/09 00:37:42;;;;;;;5.63;4.18;;;7.80;99.90;;;;;;5040876;28;20199;-69
2021/04/09 00:40:10;;;;;;;5.70;5.18;;;7.80;99.90;;;;;;5046387;28;20544;-69
2021/04/09 00:42:37;;;;;;;6.07;4.00;;;7.80;99.90;;;;;;5048738;28;20342;-69
2021/04/09 00:45:04;;;;;;;4.50;4.03;;;7.80;99.90;;;;;;5035162;28;20231;-70
2021/04/09 00:47:30;;;;;;;8.18;4.78;;;7.80;99.90;;;;;;5029924;28;20222;-70
2021/04/09 00:49:57;;;;;;;6.38;5.07;;;7.80;99.90;;;;;;5031524;28;20652;-70
2021/04/09 00:52:29;;;;;;;7.55;5.10;;;7.80;99.90;;;;;;5045635;28;20199;-70
2021/04/09 00:54:55;;;;;;;4.47;4.05;;;7.70;99.90;;;;;;5032752;28;20743;-70
2021/04/09 00:57:21;;;;;;;5.80;4.72;;;7.70;99.90;;;;;;5041839;28;20671;-70
2021/04/09 00:59:48;;;;;;;5.55;5.00;;;7.70;99.90;;;;;;5037486;28;20191;-70
2021/04/09 01:02:14;;;;;;;4.43;4.03;;;7.70;99.90;;;;;;5029850;28;20206;-70
2021/04/09 01:04:40;;;;;;;6.10;4.65;;;7.70;99.90;;;;;;5033315;28;20542;-70
2021/04/09 01:07:06;;;;;;;5.07;4.40;;;7.70;99.90;;;;;;5040137;28;20214;-70
2021/04/09 01:09:35;;;;;;;5.05;4.55;;;7.70;99.90;;;;;;5033288;28;20220;-70
2021/04/09 01:12:02;;;;;;;4.88;4.10;;;7.80;99.90;;;;;;5037324;28;20213;-70
2021/04/09 01:14:28;;;;;;;5.07;4.18;;;7.70;99.90;;;;;;5034593;28;20215;-70
2021/04/09 01:17:01;;;;;;;5.28;4.25;;;7.60;99.90;;;;;;5033904;28;20199;-70
2021/04/09 01:19:41;;;;;;;6.72;4.10;;;7.70;99.90;;;;;;5039168;28;20199;-71
2021/04/09 01:22:09;;;;;;;4.10;3.70;;;7.70;99.90;;;;;;5029659;28;20203;-70
2021/04/09 01:25:09;;;;;;;6.40;5.18;;;7.70;99.90;;;;;;5034330;28;20206;-70
2021/04/09 01:27:56;;;;;;;4.50;4.10;;;7.70;99.90;;;;;;5034466;28;20230;-70
2021/04/09 01:30:52;;;;;;;6.60;4.88;;;7.70;99.90;;;;;;5034135;28;20192;-70
2021/04/09 01:33:22;;;;;;;4.70;4.00;;;7.70;99.90;;;;;;5030423;28;20207;-70
2021/04/09 01:35:54;;;;;;;5.80;4.35;;;7.70;99.90;;;;;;5029836;28;20203;-70
2021/04/09 01:38:23;;;;;;;4.80;4.25;;;7.70;99.90;;;;;;5039242;28;20576;-70
2021/04/09 01:40:52;;;;;;;5.03;4.35;;;7.70;99.90;;;;;;5030494;28;20283;-70
2021/04/09 01:43:21;;;;;;;4.88;4.10;;;7.70;99.90;;;;;;5033888;28;20548;-70
2021/04/09 01:45:48;;;;;;;7.10;5.50;;;7.70;99.90;;;;;;5038701;28;20285;-70
2021/04/09 01:48:16;;;;;;;4.75;3.97;;;7.70;99.90;;;;;;5032241;28;20195;-70
2021/04/09 01:50:44;;;;;;;6.55;5.35;;;7.70;99.90;;;;;;5042046;28;20210;-70
2021/04/09 01:53:12;;;;;;;4.50;3.47;;;7.70;99.90;;;;;;5040489;28;20230;-70
2021/04/09 01:55:43;;;;;;;6.43;4.70;;;7.70;99.90;;;;;;5034580;28;20258;-70
2021/04/09 01:58:11;;;;;;;4.28;3.88;;;7.70;99.90;;;;;;5048979;28;20187;-70
2021/04/09 02:00:38;;;;;;;9.50;4.00;;;7.70;99.90;;;;;;5036299;28;20199;-69
2021/04/09 02:03:05;;;;;;;6.43;4.28;;;7.70;99.90;;;;;;5042562;28;20206;-70
2021/04/09 02:05:33;;;;;;;4.97;4.47;;;7.70;99.90;;;;;;5035210;28;20196;-70
2021/04/09 02:08:03;;;;;;;7.25;5.45;;;7.70;99.90;;;;;;5048525;28;20291;-70
2021/04/09 02:10:30;;;;;;;5.05;4.07;;;7.70;99.90;;;;;;5044386;28;20191;-70
2021/04/09 02:12:57;;;;;;;5.65;4.70;;;7.70;99.90;;;;;;5037079;28;20206;-70
2021/04/09 02:15:25;;;;;;;4.65;4.22;;;7.70;99.90;;;;;;5034747;28;20207;-71
2021/04/09 02:17:52;;;;;;;6.15;5.40;;;7.60;99.90;;;;;;5048969;28;20206;-70
2021/04/09 02:20:20;;;;;;;5.78;4.15;;;7.60;99.90;;;;;;5034193;28;20210;-71
2021/04/09 02:22:48;;;;;;;4.68;4.20;;;7.60;99.90;;;;;;5039951;28;20203;-71
2021/04/09 02:25:18;;;;;;;5.65;4.68;;;7.60;99.90;;;;;;5034318;28;20195;-71
2021/04/09 02:27:45;;;;;;;6.30;4.70;;;7.60;99.90;;;;;;5033514;28;20231;-70
2021/04/09 02:30:13;;;;;;;8.93;5.30;;;7.60;99.90;;;;;;5045071;28;20218;-71
2021/04/09 02:32:39;;;;;;;5.75;3.70;;;7.60;99.90;;;;;;5047651;28;20642;-71
2021/04/09 02:35:08;;;;;;;5.30;4.00;;;7.60;99.90;;;;;;5043144;28;20693;-70
2021/04/09 02:37:34;;;;;;;4.57;4.18;;;7.60;99.90;;;;;;5039081;28;20207;-70
2021/04/09 02:40:07;;;;;;;5.55;4.18;;;7.60;99.90;;;;;;5033260;28;20636;-70
2021/04/09 02:42:35;;;;;;;5.28;4.05;;;7.60;99.90;;;;;;5035268;28;20287;-70
2021/04/09 02:45:01;;;;;;;5.35;4.57;;;7.60;99.90;;;;;;5038787;28;20202;-70
2021/04/09 02:47:30;;;;;;;7.22;5.07;;;7.50;99.90;;;;;;5040461;28;20196;-70
2021/04/09 02:50:03;;;;;;;7.95;4.22;;;7.50;99.90;;;;;;5039228;28;20199;-70
2021/04/09 02:52:32;;;;;;;5.18;4.40;;;7.50;99.90;;;;;;5042947;28;20203;-70
2021/04/09 02:55:01;;;;;;;4.75;4.35;;;7.50;99.90;;;;;;5036303;28;20218;-70
2021/04/09 02:57:30;;;;;;;4.80;3.85;;;7.50;99.90;;;;;;5043414;28;20300;-70
2021/04/09 02:59:59;;;;;;;7.20;4.30;;;7.60;99.90;;;;;;5035999;28;20212;-70
2021/04/09 03:02:26;;;;;;;4.63;4.22;;;7.50;99.90;;;;;;5038311;28;20199;-70
2021/04/09 03:04:52;;;;;;;5.63;4.15;;;7.60;99.90;;;;;;5049498;28;20191;-69
2021/04/09 03:07:19;;;;;;;5.07;4.60;;;7.50;99.90;;;;;;5040256;28;20218;-70
2021/04/09 03:09:45;;;;;;;4.35;3.83;;;7.50;99.90;;;;;;5036192;28;20199;-70
2021/04/09 03:12:13;;;;;;;5.10;4.10;;;7.40;99.90;;;;;;5033878;28;20253;-70
2021/04/09 03:14:41;;;;;;;6.45;3.80;;;7.40;99.90;;;;;;5039419;28;20215;-70
2021/04/09 03:17:12;;;;;;;4.22;3.80;;;7.40;99.90;;;;;;5036347;28;20343;-70
2021/04/09 03:19:38;;;;;;;6.25;4.55;;;7.40;99.90;;;;;;5032567;28;20203;-69
2021/04/09 03:22:09;;;;;;;8.48;4.00;;;7.40;99.90;;;;;;5048162;28;20602;-70
2021/04/09 03:24:36;;;;;;;8.10;5.07;;;7.50;99.90;;;;;;5038363;28;20252;-70
2021/04/09 03:27:03;;;;;;;5.38;4.15;;;7.50;99.90;;;;;;5044405;28;20234;-69
2021/04/09 03:29:29;;;;;;;6.82;4.70;;;7.50;99.90;;;;;;5041568;28;20198;-70
2021/04/09 03:31:55;;;;;;;6.20;4.15;;;7.50;99.90;;;;;;5033915;28;20203;-70
2021/04/09 03:34:23;;;;;;;4.65;3.72;;;7.50;99.90;;;;;;5042513;28;20222;-70
2021/04/09 03:36:49;;;;;;;3.60;3.25;;;7.40;99.90;;;;;;5035312;28;20374;-70
2021/04/09 03:39:15;;;;;;;6.60;3.70;;;7.40;99.90;;;;;;5031486;28;20203;-70
2021/04/09 03:41:41;;;;;;;7.15;3.70;;;7.30;99.90;;;;;;5034504;28;20203;-70
2021/04/09 03:44:07;;;;;;;5.28;4.28;;;7.30;99.90;;;;;;5032385;28;20586;-70
2021/04/09 03:46:34;;;;;;;5.03;4.07;;;7.30;99.90;;;;;;5046843;28;20504;-70
2021/04/09 03:49:00;;;;;;;8.38;5.57;;;7.30;99.90;;;;;;5031438;28;20238;-70
2021/04/09 03:51:27;;;;;;;4.60;4.20;;;7.40;99.90;;;;;;5045587;28;20704;-70
2021/04/09 03:53:53;;;;;;;4.07;3.22;;;7.40;99.90;;;;;;5036625;28;21020;-70
2021/04/09 03:56:20;;;;;;;4.50;4.10;;;7.40;99.90;;;;;;5035337;28;20291;-70
2021/04/09 03:58:46;;;;;;;3.67;3.38;;;7.40;99.90;;;;;;5032793;28;20203;-70
2021/04/09 04:01:12;;;;;;;6.40;5.18;;;7.40;99.90;;;;;;5037753;28;20263;-70
2021/04/09 04:03:38;;;;;;;4.90;4.00;;;7.30;99.90;;;;;;5051210;28;20218;-70
2021/04/09 04:06:04;;;;;;;4.00;3.47;;;7.30;99.90;;;;;;5041205;28;20202;-70
2021/04/09 04:08:31;;;;;;;6.53;4.00;;;7.30;99.90;;;;;;5050971;28;20217;-70
2021/04/09 04:10:58;;;;;;;5.35;3.80;;;7.30;99.90;;;;;;5046500;28;20196;-70
2021/04/09 04:13:24;;;;;;;5.63;3.47;;;7.20;99.90;;;;;;5038855;28;20548;-70
2021/04/09 04:15:50;;;;;;;4.07;3.40;;;7.30;99.90;;;;;;5032547;28;20196;-70
2021/04/09 04:18:16;;;;;;;6.65;3.53;;;7.20;99.90;;;;;;5039896;28;20567;-70
2021/04/09 04:20:43;;;;;;;4.97;3.78;;;7.20;99.90;;;;;;5034864;28;20199;-70
2021/04/09 04:23:09;;;;;;;5.55;3.05;;;7.20;99.90;;;;;;5030983;28;20505;-70
2021/04/09 04:25:36;;;;;;;6.65;4.45;;;7.20;99.90;;;;;;5034015;28;20199;-69
2021/04/09 04:28:02;;;;;;;4.78;3.25;;;7.20;99.90;;;;;;5042304;28;20263;-70
2021/04/09 04:30:28;;;;;;;3.90;3.58;;;7.20;99.90;;;;;;5034705;28;20206;-70
2021/04/09 04:32:55;;;;;;;4.32;3.28;;;7.20;99.90;;;;;;5034159;28;20196;-70
2021/04/09 04:35:21;;;;;;;6.10;3.25;;;7.20;99.90;;;;;;5048022;28;20267;-70
2021/04/09 04:41:10;;;;;;;5.18;3.25;;;7.10;99.90;;;;;;5036401;28;20679;-70
2021/04/09 04:43:36;;;;;;;3.90;3.03;;;7.10;99.90;;;;;;5039588;28;20207;-70
2021/04/09 04:46:03;;;;;;;4.00;3.50;;;7.20;99.90;;;;;;5044292;28;20194;-70
2021/04/09 04:48:29;;;;;;;6.55;4.07;;;7.10;99.90;;;;;;5046720;28;20195;-70
2021/04/09 04:50:55;;;;;;;4.90;3.20;;;7.10;99.90;;;;;;5041509;28;20196;-70
2021/04/09 04:53:21;;;;;;;5.50;3.03;;;7.10;99.90;;;;;;5036275;28;20234;-70
2021/04/09 04:55:47;;;;;;;3.85;3.33;;;7.10;99.90;;;;;;5038185;28;20527;-69
2021/04/09 04:58:14;;;;;;;3.25;2.83;;;7.10;99.90;;;;;;5048705;28;20195;-70
2021/04/09 05:00:41;;;;;;;3.72;3.42;;;7.10;99.90;;;;;;5034087;28;20200;-70
2021/04/09 05:03:07;;;;;;;5.22;3.20;;;7.20;99.90;;;;;;5030683;28;20196;-70
2021/04/09 05:05:33;;;;;;;4.50;3.10;;;7.10;99.90;;;;;;5036986;28;20196;-69
2021/04/09 05:07:59;;;;;;;3.83;3.17;;;7.10;99.90;;;;;;5031753;28;20199;-69
2021/04/09 05:10:25;;;;;;;4.22;3.40;;;7.10;99.90;;;;;;5044031;28;20203;-69
2021/04/09 05:12:52;;;;;;;3.42;3.13;;;7.00;99.90;;;;;;5049676;28;20207;-69
2021/04/09 05:15:19;;;;;;;3.78;3.25;;;7.00;99.90;;;;;;5038636;28;20219;-69
2021/04/09 05:17:45;;;;;;;4.05;3.65;;;7.00;99.90;;;;;;5039077;28;20552;-69
2021/04/09 05:20:12;;;;;;;4.95;2.83;;;7.00;99.90;;;;;;5033890;28;20198;-69
2021/04/09 05:22:38;;;;;;;3.33;2.78;;;7.00;99.90;;;;;;5042190;28;20250;-69
2021/04/09 05:25:06;;;;;;;3.65;3.00;;;7.00;99.90;;;;;;5030641;28;20557;-69
2021/04/09 05:27:32;;;;;;;3.90;3.40;;;7.00;99.90;;;;;;5037381;28;20230;-69
2021/04/09 05:29:59;;;;;;;3.78;3.38;;;7.00;99.90;;;;;;5049350;28;20202;-69
2021/04/09 05:32:26;;;;;;;4.20;2.88;;;7.00;99.90;;;;;;5045418;28;20244;-69
2021/04/09 05:34:52;;;;;;;3.15;2.50;;;7.00;99.90;;;;;;5036118;28;20223;-69
2021/04/09 05:37:18;;;;;;;3.80;2.72;;;7.00;99.90;;;;;;5030552;28;20702;-69
2021/04/09 05:39:45;;;;;;;6.00;3.13;;;7.00;99.90;;;;;;5030722;28;20199;-68
2021/04/09 05:42:11;;;;;;;2.85;2.65;;;7.10;99.90;;;;;;5033970;28;20200;-68
2021/04/09 05:44:37;;;;;;;6.47;3.42;;;7.20;99.90;;;;;;5033119;28;20627;-69
2021/04/09 05:47:05;;;;;;;5.53;3.08;;;7.30;99.90;;;;;;5035145;28;20199;-69
2021/04/09 05:49:32;;;;;;;3.42;2.85;;;7.30;99.90;;;;;;5029679;28;20200;-69
2021/04/09 05:51:58;;;;;;;4.13;3.20;;;7.30;99.90;;;;;;5041003;28;20199;-69
2021/04/09 05:54:24;;;;;;;4.00;2.95;;;7.40;99.90;;;;;;5030551;28;20215;-69
2021/04/09 05:56:50;;;;;;;4.30;3.65;;;7.40;99.90;;;;;;5030457;28;20744;-69
2021/04/09 05:59:17;;;;;;;4.30;2.92;;;7.40;99.90;;;;;;5030845;28;20204;-69
2021/04/09 06:01:44;;;;;;;7.25;3.45;;;7.30;99.90;;;;;;5040244;28;20199;-69
2021/04/09 06:04:11;;;;;;;3.63;2.90;;;7.20;99.90;;;;;;5039188;28;20252;-69
2021/04/09 06:06:38;;;;;;;3.80;3.05;;;7.20;99.90;;;;;;5039580;28;20547;-69
2021/04/09 06:09:05;;;;;;;3.08;2.17;;;7.30;99.90;;;;;;5037584;28;20199;-69
2021/04/09 06:11:31;;;;;;;3.65;2.80;;;7.40;99.90;;;;;;5041256;28;20210;-69
2021/04/09 06:13:58;;;;;;;3.65;2.92;;;7.40;99.90;;;;;;5044768;28;20219;-69
2021/04/09 06:16:24;;;;;;;3.08;2.00;;;7.50;99.90;;;;;;5044041;28;20195;-69
2021/04/09 06:18:50;;;;;;;3.20;2.33;;;7.60;99.90;;;;;;5033009;28;20222;-69
2021/04/09 06:21:17;;;;;;;3.05;2.40;;;7.70;99.90;;;;;;5037146;28;20203;-69
2021/04/09 06:23:44;;;;;;;3.08;2.40;;;7.80;99.90;;;;;;5029356;28;20195;-69
2021/04/09 06:26:10;;;;;;;6.18;2.65;;;7.90;99.90;;;;;;5032338;28;20234;-69
2021/04/09 06:28:36;;;;;;;3.35;2.60;;;8.00;99.90;;;;;;5029877;28;20258;-69
2021/04/09 06:31:02;;;;;;;4.28;2.30;;;8.10;99.90;;;;;;5040852;28;20195;-69
2021/04/09 06:33:29;;;;;;;3.03;2.28;;;8.10;99.90;;;;;;5034689;28;20270;-69
2021/04/09 06:35:55;;;;;;;4.63;2.72;;;8.20;99.90;;;;;;5039484;28;20209;-69
2021/04/09 06:38:21;;;;;;;2.78;2.50;;;8.20;99.90;;;;;;5034591;28;20211;-69
2021/04/09 06:40:48;;;;;;;3.38;2.55;;;8.30;99.90;;;;;;5033312;28;20249;-69
2021/04/09 06:43:15;;;;;;;2.80;2.50;;;8.30;99.90;;;;;;5046061;28;20218;-69
2021/04/09 06:45:41;;;;;;;4.38;2.95;;;8.40;99.90;;;;;;5038841;28;20195;-69
2021/04/09 06:48:10;;;;;;;5.63;4.07;;;8.50;99.90;;;;;;5046292;28;20203;-69
2021/04/09 06:50:36;;;;;;;2.83;2.50;;;8.60;99.70;;;;;;5034280;28;20204;-70
2021/04/09 06:53:03;;;;;;;5.45;2.70;;;8.60;99.40;;;;;;5033940;28;20199;-70
2021/04/09 06:55:29;;;;;;;3.17;2.53;;;8.70;99.20;;;;;;5039892;28;20210;-70
2021/04/09 06:58:00;;;;;;;4.10;3.10;;;8.70;99.00;;;;;;5037659;28;20196;-69
2021/04/09 07:00:31;;;;;;;3.53;3.10;;;8.80;99.20;;;;;;5037539;28;20199;-69
2021/04/09 07:02:57;;;;;;;2.90;2.22;;;8.90;98.60;;;;;;5032636;28;20666;-69
2021/04/09 07:05:26;;;;;;;6.03;3.03;;;9.00;98.40;;;;;;5044092;28;20199;-70
2021/04/09 07:07:52;;;;;;;3.75;2.40;;;9.00;98.10;;;;;;5034073;28;20306;-70
2021/04/09 07:10:18;;;;;;;3.53;2.60;;;9.00;98.00;;;;;;5034289;28;20211;-69
2021/04/09 07:12:45;;;;;;;3.20;2.67;;;9.00;98.10;;;;;;5047513;28;20207;-70
2021/04/09 07:15:17;;;;;;;4.03;3.03;;;8.90;98.10;;;;;;5048506;28;20219;-70
2021/04/09 07:17:46;;;;;;;4.93;3.15;;;8.90;98.50;;;;;;5038643;28;20586;-69
2021/04/09 07:20:18;;;;;;;4.28;3.30;;;8.90;98.50;;;;;;5046027;28;20199;-69
2021/04/09 07:22:46;;;;;;;4.50;2.78;;;9.10;98.00;;;;;;5046890;28;20190;-69
2021/04/09 07:25:14;;;;;;;3.60;3.10;;;9.30;97.60;;;;;;5033154;28;20253;-69
2021/04/09 07:27:42;;;;;;;4.13;2.90;;;9.40;97.00;;;;;;5040186;28;20749;-69
2021/04/09 07:30:09;;;;;;;5.00;3.88;;;9.60;96.40;;;;;;5046295;28;20520;-69
2021/04/09 07:32:37;;;;;;;4.00;2.58;;;9.80;96.00;;;;;;5039912;28;20203;-69
2021/04/09 07:35:13;;;;;;;6.53;3.95;;;9.90;95.40;;;;;;5033656;28;20223;-69
2021/04/09 07:37:51;;;;;;;3.35;3.00;;;10.00;94.50;;;;;;5032804;28;20210;-69
2021/04/09 07:40:22;;;;;;;6.78;3.53;;;10.10;94.30;;;;;;5035183;28;20702;-69
2021/04/09 07:42:48;;;;;;;5.45;3.72;;;10.20;93.90;;;;;;5034774;28;20654;-69
2021/04/09 07:45:16;;;;;;;5.85;3.25;;;10.30;93.70;;;;;;5033605;28;20190;-69
2021/04/09 07:47:55;;;;;;;3.85;2.90;;;10.30;93.50;;;;;;5039694;28;20192;-69
2021/04/09 07:50:32;;;;;;;6.20;3.13;;;10.40;93.40;;;;;;5032617;28;20195;-69
2021/04/09 07:53:00;;;;;;;5.03;2.92;;;10.50;93.20;;;;;;5039321;28;20202;-69
2021/04/09 07:55:29;;;;;;;4.75;3.83;;;10.60;93.00;;;;;;5052408;28;20273;-70
2021/04/09 07:57:56;;;;;;;4.13;3.10;;;10.70;92.50;;;;;;5046730;28;20639;-69
2021/04/09 08:00:26;;;;;;;5.63;3.05;;;10.80;92.40;;;;;;5040062;28;20678;-70
2021/04/09 08:02:55;;;;;;;4.95;3.45;;;10.80;92.10;;;;;;5038271;28;20187;-69
2021/04/09 08:05:23;;;;;;;4.47;3.17;;;10.90;92.00;;;;;;5051743;28;20253;-69
2021/04/09 08:07:50;;;;;;;4.32;2.65;;;11.00;92.00;;;;;;5039458;28;20203;-70
2021/04/09 08:10:17;;;;;;;6.10;3.55;;;11.00;91.70;;;;;;5043716;28;20203;-70
2021/04/09 08:12:50;;;;;;;4.25;3.03;;;11.10;91.50;;;;;;5046359;28;20555;-70
2021/04/09 08:15:18;;;;;;;5.00;2.63;;;11.10;91.50;;;;;;5045055;28;20207;-70
2021/04/09 08:17:56;;;;;;;3.70;2.80;;;11.20;91.40;;;;;;5046403;28;20195;-70
2021/04/09 08:20:24;;;;;;;4.97;3.65;;;11.20;91.40;;;;;;5051493;28;20187;-70
2021/04/09 08:22:51;;;;;;;3.78;2.60;;;11.20;91.30;;;;;;5045686;28;20257;-69
2021/04/09 08:25:17;;;;;;;5.20;3.50;;;11.30;91.20;;;;;;5048066;28;20644;-69
2021/04/09 08:27:45;;;;;;;4.38;2.88;;;11.30;91.00;;;;;;5036944;28;20254;-69
2021/04/09 08:30:14;;;;;;;4.32;2.55;;;11.40;91.00;;;;;;5038518;28;20199;-69
2021/04/09 08:32:40;;;;;;;4.43;3.05;;;11.50;90.90;;;;;;5037430;28;20420;-70
2021/04/09 08:35:08;;;;;;;4.75;3.25;;;11.50;90.80;;;;;;5052367;28;20292;-69
2021/04/09 08:37:36;;;;;;;4.80;2.92;;;11.50;90.60;;;;;;5047998;28;20309;-69
2021/04/09 08:40:04;;;;;;;6.55;3.72;;;11.60;90.70;;;;;;5043544;28;20636;-69
2021/04/09 08:42:33;;;;;;;6.43;3.25;;;11.60;90.70;;;;;;5038034;28;20253;-70
2021/04/09 08:45:00;;;;;;;4.05;3.20;;;11.50;90.80;;;;;;5040069;28;20274;-70
2021/04/09 08:47:28;;;;;;;4.82;3.10;;;11.60;91.00;;;;;;5037584;28;20203;-70
2021/04/09 08:49:55;;;;;;;3.30;3.00;;;11.70;90.90;;;;;;5044349;28;20199;-70
2021/04/09 08:52:23;;;;;;;4.20;3.15;;;11.70;90.80;;;;;;5046410;28;20198;-70
2021/04/09 08:54:51;;;;;;;4.60;3.50;;;11.80;90.70;;;;;;5036650;28;20207;-70
2021/04/09 08:57:33;;;;;;;4.78;2.67;;;11.80;90.60;;;;;;5031914;28;20207;-70
2021/04/09 09:00:14;;;;;;;4.88;3.67;;;11.90;90.50;;;;;;5041591;28;20194;-70
2021/04/09 09:02:48;;;;;;;4.20;2.80;;;12.00;90.40;;;;;;5051429;28;20198;-69
2021/04/09 09:05:17;;;;;;;8.13;3.10;;;12.00;90.30;;;;;;5044900;28;20195;-69
2021/04/09 09:07:57;;;;;;;4.38;3.15;;;12.00;90.00;;;;;;5049145;28;20217;-69
2021/04/09 09:10:55;;;;;;;3.35;2.97;;;12.10;90.10;;;;;;5051948;28;20233;-69
2021/04/09 09:13:29;;;;;;;4.30;3.45;;;12.10;90.00;;;;;;5039189;28;20290;-70
2021/04/09 09:16:11;;;;;;;5.05;2.90;;;12.10;90.00;;;;;;5050483;28;20285;-70
2021/04/09 09:18:55;;;;;;;4.05;3.30;;;12.10;90.20;;;;;;5048356;28;20208;-70
2021/04/09 09:21:37;;;;;;;3.28;2.65;;;12.00;90.20;;;;;;5035939;28;20221;-70
2021/04/09 09:24:16;;;;;;;4.05;2.60;;;12.00;90.40;;;;;;5041654;28;20286;-69
2021/04/09 09:26:44;;;;;;;7.30;3.55;;;12.00;90.50;;;;;;5035031;28;20233;-70
2021/04/09 09:29:14;;;;;;;4.20;2.75;;;12.00;90.30;;;;;;5036298;28;20202;-70
2021/04/09 09:31:43;;;;;;;3.95;3.38;;;12.10;90.50;;;;;;5039574;28;20656;-70
2021/04/09 09:34:44;;;;;;;5.97;2.90;;;12.10;90.50;;;;;;5038080;28;20215;-70
2021/04/09 09:37:18;;;;;;;3.78;2.90;;;12.10;90.60;;;;;;5037817;28;20282;-70
2021/04/09 09:39:46;;;;;;;4.20;2.88;;;12.10;90.70;;;;;;5040807;28;20217;-70
2021/04/09 09:42:29;;;;;;;3.60;2.63;;;12.10;90.90;;;;;;5044311;28;20195;-70
2021/04/09 09:44:56;;;;;;;4.68;2.20;;;12.10;90.90;;;;;;5035306;28;20196;-70
2021/04/09 09:47:25;;;;;;;4.78;2.95;;;12.10;91.00;;;;;;5030036;28;20203;-70
2021/04/09 09:50:29;;;;;;;4.00;3.03;;;12.10;90.90;;;;;;5043389;28;20588;-70
2021/04/09 09:52:58;;;;;;;4.57;2.88;;;12.10;90.80;;;;;;5030874;28;20209;-70
2021/04/09 09:55:27;;;;;;;5.07;2.72;;;12.10;90.80;;;;;;5044288;28;20268;-70
2021/04/09 09:57:55;;;;;;;3.25;2.33;;;12.10;91.00;;;;;;5049985;28;20206;-70
2021/04/09 10:00:31;;;;;;;5.50;3.85;;;12.00;91.30;;;;;;5044182;28;20191;-70
2021/04/09 10:03:18;;;;;;;3.33;2.60;;;11.90;91.50;;;;;;5044401;28;20276;-70
2021/04/09 10:05:48;;;;;;;6.60;3.03;;;11.90;92.10;;;;;;5038166;28;20642;-70
2021/04/09 10:08:14;;;;;;;3.38;2.80;;;11.80;92.10;;;;;;5047434;28;20256;-70
2021/04/09 10:10:44;;;;;;;5.45;2.60;;;11.70;92.20;;;;;;5041417;28;20619;-70
2021/04/09 10:13:30;;;;;;;3.65;3.00;;;11.70;92.40;;;;;;5046880;28;20211;-70
2021/04/09 10:16:06;;;;;;;2.78;2.40;;;11.70;92.80;;;;;;5048077;28;20199;-70
2021/04/09 10:18:33;;;;;;;2.90;2.50;;;11.70;92.50;;;;;;5049996;28;20559;-70
2021/04/09 10:21:09;;;;;;;2.75;2.33;;;11.70;92.20;;;;;;5045720;28;20194;-70
2021/04/09 10:23:35;;;;;;;2.75;2.22;;;11.70;92.50;;;;;;5053151;28;20198;-70
2021/04/09 10:26:01;;;;;;;3.78;2.58;;;11.80;92.50;;;;;;5042864;28;20214;-70
2021/04/09 10:28:32;;;;;;;3.40;2.70;;;11.80;92.50;;;;;;5053390;28;20531;-70
2021/04/09 10:31:09;;;;;;;3.88;2.67;;;11.80;92.50;;;;;;5052086;28;20202;-70
2021/04/09 10:33:37;;;;;;;3.88;2.60;;;11.80;92.30;;;;;;5047196;28;20244;-70
2021/04/09 10:36:21;;;;;;;6.78;3.10;;;11.90;92.60;;;;;;5051000;28;20217;-71
2021/04/09 10:38:50;;;;;;;3.92;3.00;;;11.90;92.60;;;;;;5044123;28;20246;-70
2021/04/09 10:41:28;;;;;;;7.50;2.80;;;11.90;92.60;;;;;;5041429;28;20238;-71
2021/04/09 10:43:58;;;;;;;5.68;4.45;;;11.90;92.60;;;;;;5047809;28;20195;-71
2021/04/09 10:46:25;;;;;;;5.43;3.60;;;11.90;92.90;;;;;;5036585;28;20210;-70
2021/04/09 10:48:58;;;;;;;3.63;2.85;;;11.90;92.90;;;;;;5047072;28;20234;-70
2021/04/09 10:51:28;;;;;;;3.65;2.83;;;12.00;92.90;;;;;;5045066;28;20623;-71
2021/04/09 10:53:55;;;;;;;6.10;3.78;;;12.00;92.80;;;;;;5045690;28;20203;-71
2021/04/09 10:56:22;;;;;;;4.15;3.22;;;12.00;92.80;;;;;;5046660;28;20202;-72
2021/04/09 10:58:48;;;;;;;7.30;3.45;;;12.00;92.90;;;;;;5038505;28;20211;-72
2021/04/09 11:01:16;;;;;;;3.25;2.95;;;12.10;92.80;;;;;;5052028;28;20199;-71
2021/04/09 11:03:43;;;;;;;5.10;3.75;;;12.00;92.80;;;;;;5053617;28;20207;-71
2021/04/09 11:06:10;;;;;;;7.28;4.63;;;12.00;92.80;;;;;;5048607;28;20190;-72
2021/04/09 11:08:39;;;;;;;3.75;3.22;;;12.00;92.80;;;;;;5043931;28;20723;-71
2021/04/09 11:11:08;;;;;;;4.43;3.13;;;12.10;92.90;;;;;;5046713;28;20213;-72
2021/04/09 11:13:37;;;;;;;3.42;3.13;;;12.00;92.70;;;;;;5048892;28;20206;-71
2021/04/09 11:16:05;;;;;;;4.55;3.90;;;12.10;92.80;;;;;;5042357;28;20231;-71
2021/04/09 11:18:49;;;;;;;4.18;3.63;;;12.10;93.10;;;;;;5050742;28;20203;-72
2021/04/09 11:21:16;;;;;;;5.75;3.80;;;12.10;93.00;;;;;;5036208;28;20208;-70
2021/04/09 11:23:42;;;;;;;4.50;3.90;;;12.10;93.00;;;;;;5032701;28;20232;-70
2021/04/09 11:26:19;;;;;;;4.40;4.00;;;12.10;92.90;;;;;;5048646;28;20235;-68
2021/04/09 11:28:53;;;;;;;6.10;3.30;;;12.10;92.90;;;;;;5041575;28;20194;-70
2021/04/09 11:31:24;;;;;;;3.58;3.28;;;12.20;92.90;;;;;;5045003;28;20677;-70
2021/04/09 11:34:03;;;;;;;4.38;3.25;;;12.20;92.80;;;;;;5050402;28;20206;-70
2021/04/09 11:36:37;;;;;;;4.60;3.65;;;12.20;92.70;;;;;;5043015;28;20199;-74
2021/04/09 11:39:08;;;;;;;5.38;2.83;;;12.20;92.70;;;;;;5046560;28;20217;-74
2021/04/09 11:41:36;;;;;;;5.63;3.20;;;12.20;92.70;;;;;;5042564;28;20199;-74
2021/04/09 11:44:24;;;;;;;7.15;3.22;;;12.20;92.80;;;;;;5050863;28;20265;-73
2021/04/09 11:46:51;;;;;;;6.53;3.17;;;12.20;92.90;;;;;;5052762;28;20604;-73
2021/04/09 11:49:26;;;;;;;3.70;3.40;;;12.20;92.90;;;;;;5049457;28;20219;-73
2021/04/09 11:51:58;;;;;;;4.28;3.55;;;12.20;93.10;;;;;;5039007;28;20187;-71
2021/04/09 11:54:31;;;;;;;4.28;3.08;;;12.20;93.00;;;;;;5033186;28;20262;-73
2021/04/09 11:56:58;;;;;;;4.63;4.22;;;12.20;93.00;;;;;;5032813;28;20196;-73
2021/04/09 11:59:26;;;;;;;3.42;3.13;;;12.20;93.00;;;;;;5046281;28;20283;-73
2021/04/09 12:01:54;;;;;;;5.45;4.30;;;12.20;92.90;;;;;;5032828;28;20208;-72
2021/04/09 12:04:35;;;;;;;6.00;3.10;;;12.20;92.90;;;;;;5039787;28;20222;-72
2021/04/09 12:07:03;;;;;;;6.35;3.17;;;12.20;93.00;;;;;;5043017;28;20231;-72
2021/04/09 12:09:29;;;;;;;4.28;3.78;;;12.20;93.00;;;;;;5034611;28;20195;-70
2021/04/09 12:11:56;;;;;;;4.03;3.63;;;12.20;93.00;;;;;;5032178;28;20199;-69
2021/04/09 12:14:36;;;;;;;5.15;3.30;;;12.20;93.10;;;;;;5045494;28;20219;-69
2021/04/09 12:17:04;;;;;;;3.95;3.35;;;12.20;93.00;;;;;;5052329;28;20187;-68
2021/04/09 12:19:30;;;;;;;3.90;3.50;;;12.20;93.00;;;;;;5042368;28;20354;-68
2021/04/09 12:21:57;;;;;;;4.68;3.40;;;12.30;93.10;;;;;;5040495;28;20716;-68
2021/04/09 12:24:24;;;;;;;3.80;3.10;;;12.30;93.10;;;;;;5048139;28;20520;-67
2021/04/09 12:26:50;;;;;;;5.07;3.63;;;12.30;93.00;;;;;;5039045;28;20920;-67
2021/04/09 12:29:16;;;;;;;4.03;3.72;;;12.30;93.10;;;;;;5035446;28;20195;-69
2021/04/09 12:31:43;;;;;;;3.92;3.60;;;12.30;93.10;;;;;;5032051;28;20203;-70
2021/04/09 12:34:09;;;;;;;3.50;3.20;;;12.30;93.00;;;;;;5031305;28;20210;-70
2021/04/09 12:36:37;;;;;;;3.85;3.20;;;12.30;93.00;;;;;;5047987;28;20199;-70
2021/04/09 12:39:07;;;;;;;6.40;3.65;;;12.30;93.10;;;;;;5040244;28;20206;-69
2021/04/09 12:41:33;;;;;;;4.75;3.90;;;12.30;93.10;;;;;;5031371;28;20525;-69
2021/04/09 12:44:00;;;;;;;5.30;4.00;;;12.30;93.10;;;;;;5044885;28;20196;-73
2021/04/09 12:46:28;;;;;;;5.63;4.53;;;12.30;93.10;;;;;;5038499;28;20213;-73
2021/04/09 12:48:54;;;;;;;4.40;3.58;;;12.30;93.00;;;;;;5034085;28;20199;-74
2021/04/09 12:51:21;;;;;;;6.22;3.28;;;12.30;93.10;;;;;;5043943;28;20233;-74
2021/04/09 12:53:48;;;;;;;8.13;4.50;;;12.30;93.10;;;;;;5046800;28;20206;-76
2021/04/09 12:56:15;;;;;;;12.65;6.40;;;12.30;93.10;;;;;;5040982;28;20219;-70
2021/04/09 12:58:42;;;;;;;6.45;4.25;;;12.30;93.10;;;;;;5045084;28;20190;-69
2021/04/09 13:01:08;;;;;;;4.38;3.60;;;12.40;93.10;;;;;;5038944;28;20203;-69
2021/04/09 13:03:34;;;;;;;5.15;4.40;;;12.40;93.20;;;;;;5044799;28;20631;-70
2021/04/09 13:06:01;;;;;;;5.53;4.35;;;12.40;93.20;;;;;;5048188;28;20194;-70